createdAt,value
2018-07-27T00:00:25.531Z,75.50
2018-07-27T00:02:02.594Z,77.40
2018-07-27T00:03:39.160Z,76.70
2018-07-27T00:05:15.686Z,76.80
2018-07-27T00:06:53.645Z,77.70
2018-07-27T00:08:37.033Z,75.60
2018-07-27T00:10:18.459Z,75.70
2018-07-27T00:11:55.992Z,75.70
2018-07-27T00:13:34.492Z,76.50
2018-07-27T00:15:12.464Z,76.40
2018-07-27T00:16:52.553Z,77.20
2018-07-27T00:18:32.178Z,76.60
2018-07-27T00:20:10.823Z,77.80
2018-07-27T00:21:50.389Z,77.80
2018-07-27T00:23:26.866Z,80.00
2018-07-27T00:25:05.638Z,82.20
2018-07-27T00:26:43.656Z,78.70
2018-07-27T00:28:22.525Z,79.70
2018-07-27T00:30:00.952Z,78.50
2018-07-27T00:31:53.691Z,76.40
2018-07-27T00:33:30.523Z,79.60
2018-07-27T00:35:09.071Z,80.50
2018-07-27T00:36:48.942Z,77.40
2018-07-27T00:38:25.847Z,78.90
2018-07-27T00:40:02.798Z,81.30
2018-07-27T00:41:45.193Z,79.80
2018-07-27T00:43:26.523Z,77.10
2018-07-27T00:45:03.478Z,76.50
2018-07-27T00:46:43.483Z,76.00
2018-07-27T00:48:21.184Z,77.00
2018-07-27T00:50:01.946Z,76.30
2018-07-27T00:51:38.525Z,77.10
2018-07-27T00:53:15.909Z,77.10
2018-07-27T00:54:53.003Z,76.30
2018-07-27T00:56:30.935Z,78.10
2018-07-27T00:58:08.363Z,78.50
2018-07-27T00:59:46.637Z,76.30
2018-07-27T01:01:23.222Z,77.10
2018-07-27T01:03:01.068Z,77.20
2018-07-27T01:04:38.372Z,78.50
2018-07-27T01:06:16.681Z,77.10
2018-07-27T01:09:32.535Z,76.40
2018-07-27T01:11:09.833Z,76.10
2018-07-27T01:12:46.432Z,74.00
2018-07-27T01:14:24.471Z,73.60
2018-07-27T01:16:01.688Z,76.10
2018-07-27T01:17:39.317Z,76.00
2018-07-27T01:19:18.397Z,75.60
2018-07-27T01:22:33.761Z,75.20
2018-07-27T01:24:12.004Z,75.60
2018-07-27T01:25:48.630Z,75.40
2018-07-27T01:27:26.774Z,75.80
2018-07-27T01:29:03.696Z,74.70
2018-07-27T01:30:40.571Z,76.80
2018-07-27T01:32:17.044Z,75.80
2018-07-27T01:33:54.537Z,75.90
2018-07-27T01:35:31.393Z,77.70
2018-07-27T01:37:09.272Z,76.30
2018-07-27T01:38:47.705Z,78.10
2018-07-27T01:40:24.295Z,79.80
2018-07-27T01:42:02.472Z,77.90
2018-07-27T01:43:41.967Z,76.60
2018-07-27T01:45:18.952Z,76.50
2018-07-27T01:48:34.064Z,83.50
2018-07-27T01:50:10.568Z,77.80
2018-07-27T01:51:47.629Z,78.80
2018-07-27T01:53:24.230Z,79.50
2018-07-27T01:55:02.063Z,81.20
2018-07-27T01:56:39.656Z,79.00
2018-07-27T01:58:16.105Z,80.50
2018-07-27T01:59:53.131Z,81.00
2018-07-27T02:01:30.119Z,82.20
2018-07-27T02:03:06.801Z,81.60
2018-07-27T02:04:43.455Z,79.60
2018-07-27T02:06:23.641Z,79.60
2018-07-27T02:08:01.564Z,80.50
2018-07-27T02:09:39.784Z,81.20
2018-07-27T02:11:20.405Z,80.60
2018-07-27T02:12:58.861Z,80.50
2018-07-27T02:14:36.304Z,82.50
2018-07-27T02:16:17.327Z,82.30
2018-07-27T02:17:54.845Z,81.00
2018-07-27T02:19:31.972Z,80.90
2018-07-27T02:21:10.168Z,80.70
2018-07-27T02:24:23.001Z,80.60
2018-07-27T02:26:00.116Z,79.40
2018-07-27T02:27:36.691Z,78.50
2018-07-27T02:29:15.333Z,77.00
2018-07-27T02:30:53.076Z,76.20
2018-07-27T02:32:31.660Z,76.10
2018-07-27T02:34:09.320Z,76.20
2018-07-27T02:35:47.227Z,75.70
2018-07-27T02:37:25.493Z,76.90
2018-07-27T02:39:02.836Z,75.90
2018-07-27T02:40:40.041Z,77.30
2018-07-27T02:42:17.545Z,78.40
2018-07-27T02:43:54.930Z,77.40
2018-07-27T02:45:31.774Z,76.90
2018-07-27T02:47:08.253Z,79.90
2018-07-27T02:48:44.757Z,78.60
2018-07-27T02:50:21.617Z,82.10
2018-07-27T02:51:59.612Z,80.40
2018-07-27T02:53:36.848Z,79.60
2018-07-27T02:56:49.283Z,80.10
2018-07-27T02:58:26.403Z,81.90
2018-07-27T03:00:03.753Z,79.20
2018-07-27T03:01:40.699Z,80.90
2018-07-27T03:03:17.308Z,79.40
2018-07-27T03:04:54.913Z,81.80
2018-07-27T03:06:31.384Z,81.20
2018-07-27T03:08:08.974Z,80.10
2018-07-27T03:09:46.364Z,79.90
2018-07-27T03:11:23.372Z,80.70
2018-07-27T03:14:37.162Z,83.30
2018-07-27T03:16:13.912Z,82.10
2018-07-27T03:17:51.072Z,83.20
2018-07-27T03:19:27.804Z,83.40
2018-07-27T03:21:04.559Z,84.60
2018-07-27T03:22:41.504Z,84.20
2018-07-27T03:24:20.033Z,85.20
2018-07-27T03:25:57.682Z,84.10
2018-07-27T03:27:34.472Z,84.40
2018-07-27T03:29:11.889Z,84.30
2018-07-27T03:30:49.110Z,84.70
2018-07-27T03:32:25.601Z,85.20
2018-07-27T03:34:02.068Z,85.10
2018-07-27T03:35:39.409Z,85.20
2018-07-27T03:37:16.759Z,85.70
2018-07-27T03:38:53.203Z,86.30
2018-07-27T03:42:05.876Z,86.20
2018-07-27T03:43:43.369Z,85.00
2018-07-27T03:45:20.074Z,84.80
2018-07-27T03:46:56.734Z,84.40
2018-07-27T03:48:33.811Z,85.00
2018-07-27T03:50:11.299Z,83.80
2018-07-27T03:51:48.342Z,83.70
2018-07-27T03:53:24.733Z,83.80
2018-07-27T03:55:01.237Z,84.50
2018-07-27T03:56:38.245Z,86.40
2018-07-27T03:58:14.641Z,86.90
2018-07-27T03:59:51.811Z,86.60
2018-07-27T04:01:28.697Z,84.80
2018-07-27T04:03:05.591Z,84.30
2018-07-27T04:04:42.042Z,84.00
2018-07-27T04:06:18.487Z,84.70
2018-07-27T04:07:55.937Z,84.90
2018-07-27T04:09:33.507Z,86.80
2018-07-27T04:11:10.329Z,85.60
2018-07-27T04:12:46.702Z,85.00
2018-07-27T04:14:23.146Z,85.20
2018-07-27T04:16:00.211Z,86.80
2018-07-27T04:17:37.282Z,87.40
2018-07-27T04:19:13.772Z,87.10
2018-07-27T04:20:50.272Z,85.00
2018-07-27T04:22:26.749Z,83.10
2018-07-27T04:24:03.242Z,81.60
2018-07-27T04:25:40.381Z,83.30
2018-07-27T04:27:17.655Z,84.20
2018-07-27T04:28:54.515Z,81.20
2018-07-27T04:30:31.294Z,79.80
2018-07-27T04:32:09.425Z,80.30
2018-07-27T04:33:45.952Z,79.40
2018-07-27T04:35:23.003Z,80.90
2018-07-27T04:37:00.088Z,77.50
2018-07-27T04:38:36.544Z,79.00
2018-07-27T04:40:13.876Z,76.90
2018-07-27T04:41:51.177Z,76.90
2018-07-27T04:43:27.818Z,77.90
2018-07-27T04:45:05.265Z,78.60
2018-07-27T04:46:41.991Z,78.40
2018-07-27T04:48:19.440Z,77.90
2018-07-27T04:49:55.961Z,80.40
2018-07-27T04:51:32.505Z,80.60
2018-07-27T04:53:08.926Z,78.70
2018-07-27T04:54:45.726Z,79.70
2018-07-27T04:56:22.132Z,79.10
2018-07-27T04:57:59.473Z,79.90
2018-07-27T04:59:35.893Z,79.70
2018-07-27T05:01:13.054Z,79.20
2018-07-27T05:02:49.482Z,78.80
2018-07-27T05:04:30.020Z,78.70
2018-07-27T05:06:07.250Z,79.40
2018-07-27T05:07:44.667Z,78.10
2018-07-27T05:09:23.883Z,74.30
2018-07-27T05:11:01.463Z,78.20
2018-07-27T05:12:39.365Z,75.10
2018-07-27T05:14:16.540Z,77.10
2018-07-27T05:15:52.948Z,76.30
2018-07-27T05:17:29.413Z,74.30
2018-07-27T05:19:06.589Z,70.30
2018-07-27T05:20:44.535Z,69.50
2018-07-27T05:22:20.959Z,66.50
2018-07-27T05:23:57.551Z,68.00
2018-07-27T05:25:33.956Z,68.70
2018-07-27T05:27:12.554Z,66.80
2018-07-27T05:28:49.110Z,64.80
2018-07-27T05:30:28.498Z,65.20
2018-07-27T05:32:04.984Z,64.80
2018-07-27T05:33:42.754Z,65.30
2018-07-27T05:35:19.256Z,64.50
2018-07-27T05:37:00.714Z,64.80
2018-07-27T05:38:38.387Z,65.90
2018-07-27T05:40:15.204Z,65.30
2018-07-27T05:41:55.909Z,65.40
2018-07-27T05:43:33.135Z,65.20
2018-07-27T05:45:09.713Z,64.50
2018-07-27T05:46:46.776Z,65.50
2018-07-27T05:48:24.434Z,66.00
2018-07-27T05:50:01.514Z,65.40
2018-07-27T05:51:38.781Z,66.30
2018-07-27T05:53:15.245Z,64.90
2018-07-27T05:54:51.626Z,65.10
2018-07-27T05:56:28.497Z,64.70
2018-07-27T05:58:05.015Z,64.60
2018-07-27T05:59:41.421Z,64.60
2018-07-27T06:01:17.944Z,64.60
2018-07-27T06:02:54.469Z,64.60
2018-07-27T06:04:31.464Z,64.60
2018-07-27T06:06:08.346Z,63.10
2018-07-27T06:07:44.891Z,62.80
2018-07-27T06:09:21.380Z,62.30
2018-07-27T06:10:59.094Z,62.50
2018-07-27T06:14:12.063Z,61.60
2018-07-27T06:17:27.505Z,59.00
2018-07-27T06:19:04.090Z,58.30
2018-07-27T06:20:41.425Z,57.90
2018-07-27T06:22:17.972Z,57.80
2018-07-27T06:23:54.845Z,56.90
2018-07-27T06:25:32.326Z,57.80
2018-07-27T06:27:08.867Z,58.20
2018-07-27T06:28:45.322Z,58.30
2018-07-27T06:30:23.701Z,59.40
2018-07-27T06:32:02.627Z,59.40
2018-07-27T06:33:40.003Z,59.70
2018-07-27T06:35:17.899Z,59.00
2018-07-27T06:36:56.305Z,59.30
2018-07-27T06:38:33.782Z,57.70
2018-07-27T06:40:10.420Z,57.90
2018-07-27T06:41:50.333Z,59.10
2018-07-27T06:43:26.885Z,58.60
2018-07-27T06:45:04.066Z,59.10
2018-07-27T06:46:40.685Z,57.50
2018-07-27T06:48:19.421Z,57.50
2018-07-27T06:49:56.230Z,56.90
2018-07-27T06:51:33.307Z,56.40
2018-07-27T06:53:10.529Z,55.60
2018-07-27T06:54:47.084Z,55.50
2018-07-27T06:56:23.892Z,54.70
2018-07-27T06:58:00.417Z,54.30
2018-07-27T06:59:36.830Z,54.10
2018-07-27T07:02:50.604Z,52.70
2018-07-27T07:06:03.339Z,52.70
2018-07-27T07:07:39.895Z,52.80
2018-07-27T07:09:16.331Z,53.80
2018-07-27T07:10:52.830Z,55.40
2018-07-27T07:12:29.323Z,55.90
2018-07-27T07:14:06.520Z,55.80
2018-07-27T07:15:43.551Z,55.90
2018-07-27T07:17:20.039Z,55.50
2018-07-27T07:18:57.185Z,55.30
2018-07-27T07:20:33.648Z,53.80
2018-07-27T07:22:11.381Z,54.30
2018-07-27T07:23:47.818Z,55.10
2018-07-27T07:25:24.335Z,54.80
2018-07-27T07:27:02.504Z,54.30
2018-07-27T07:28:42.597Z,54.70
2018-07-27T07:30:20.613Z,54.10
2018-07-27T07:35:11.294Z,54.00
2018-07-27T07:36:47.817Z,54.30
2018-07-27T07:38:24.292Z,53.60
2018-07-27T07:40:01.630Z,52.60
2018-07-27T07:41:38.841Z,53.40
2018-07-27T07:43:17.823Z,53.90
2018-07-27T07:44:55.763Z,53.30
2018-07-27T07:46:32.528Z,52.30
2018-07-27T07:48:10.728Z,51.80
2018-07-27T07:49:47.298Z,51.80
2018-07-27T07:51:24.874Z,52.90
2018-07-27T07:53:01.326Z,53.30
2018-07-27T07:54:39.024Z,53.90
2018-07-27T07:56:16.268Z,53.70
2018-07-27T07:57:53.498Z,53.90
2018-07-27T07:59:34.529Z,53.30
2018-07-27T08:02:48.870Z,53.00
2018-07-27T08:04:26.517Z,52.70
2018-07-27T08:06:03.866Z,52.30
2018-07-27T08:07:40.716Z,51.50
2018-07-27T08:09:19.415Z,52.50
2018-07-27T08:11:01.313Z,52.20
2018-07-27T08:12:38.919Z,52.60
2018-07-27T08:14:16.043Z,52.50
2018-07-27T08:15:52.566Z,52.20
2018-07-27T08:17:31.842Z,51.50
2018-07-27T08:19:09.002Z,52.10
2018-07-27T08:20:47.575Z,52.20
2018-07-27T08:22:24.891Z,52.10
2018-07-27T08:24:01.361Z,52.00
2018-07-27T08:28:41.639Z,52.20
2018-07-27T08:30:20.829Z,51.60
2018-07-27T08:32:01.591Z,51.00
2018-07-27T08:33:38.111Z,50.90
2018-07-27T08:35:14.672Z,50.10
2018-07-27T08:36:51.669Z,50.70
2018-07-27T08:38:28.528Z,51.30
2018-07-27T08:40:05.691Z,50.70
2018-07-27T08:43:19.149Z,51.40
2018-07-27T08:44:57.669Z,52.10
2018-07-27T08:46:35.463Z,50.40
2018-07-27T08:48:12.768Z,50.50
2018-07-27T08:49:49.207Z,50.00
2018-07-27T08:51:26.792Z,50.00
2018-07-27T08:53:03.351Z,49.00
2018-07-27T08:54:40.398Z,50.00
2018-07-27T08:56:17.472Z,49.70
2018-07-27T08:57:55.397Z,49.30
2018-07-27T08:59:31.924Z,48.90
2018-07-27T09:02:47.631Z,45.70
2018-07-27T09:04:24.762Z,45.40
2018-07-27T09:06:01.275Z,45.30
2018-07-27T09:07:37.815Z,45.90
2018-07-27T09:09:16.183Z,46.30
2018-07-27T09:10:55.456Z,46.20
2018-07-27T09:12:33.557Z,46.50
2018-07-27T09:14:10.157Z,45.80
2018-07-27T09:17:34.875Z,45.70
2018-07-27T09:19:11.997Z,46.30
2018-07-27T09:20:48.636Z,46.20
2018-07-27T09:22:25.277Z,45.20
2018-07-27T09:24:01.903Z,45.30
2018-07-27T09:25:40.089Z,45.00
2018-07-27T09:27:17.307Z,45.20
2018-07-27T09:28:57.912Z,45.40
2018-07-27T09:30:36.590Z,45.90
2018-07-27T09:32:19.096Z,46.10
2018-07-27T09:33:57.365Z,45.80
2018-07-27T09:35:38.932Z,45.50
2018-07-27T09:38:46.551Z,45.50
2018-07-27T09:40:23.717Z,45.60
2018-07-27T09:42:00.169Z,44.70
2018-07-27T09:43:38.543Z,45.40
2018-07-27T09:45:16.740Z,45.60
2018-07-27T09:46:53.542Z,45.80
2018-07-27T09:48:29.979Z,45.90
2018-07-27T09:50:07.672Z,45.80
2018-07-27T09:51:44.376Z,45.50
2018-07-27T09:53:21.543Z,45.60
2018-07-27T09:54:59.433Z,45.70
2018-07-27T09:56:37.273Z,45.50
2018-07-27T09:58:14.272Z,45.10
2018-07-27T09:59:51.629Z,45.20
2018-07-27T10:01:29.648Z,45.40
2018-07-27T10:03:07.636Z,45.70
2018-07-27T10:04:45.343Z,46.10
2018-07-27T10:06:24.509Z,45.20
2018-07-27T10:08:01.733Z,45.00
2018-07-27T10:09:41.912Z,44.90
2018-07-27T10:11:19.330Z,44.80
2018-07-27T10:12:56.693Z,45.00
2018-07-27T10:14:34.336Z,44.70
2018-07-27T10:16:12.843Z,44.30
2018-07-27T10:19:28.945Z,44.80
2018-07-27T10:21:06.506Z,44.40
2018-07-27T10:22:43.300Z,43.50
2018-07-27T10:24:20.729Z,41.90
2018-07-27T10:25:57.410Z,43.10
2018-07-27T10:27:38.435Z,43.40
2018-07-27T10:29:15.270Z,42.90
2018-07-27T10:30:53.201Z,43.30
2018-07-27T10:32:30.716Z,43.90
2018-07-27T10:34:07.252Z,43.10
2018-07-27T10:35:45.646Z,43.10
2018-07-27T10:37:25.888Z,43.00
2018-07-27T10:39:08.534Z,43.20
2018-07-27T10:40:46.616Z,42.90
2018-07-27T10:42:25.198Z,43.50
2018-07-27T10:44:04.529Z,43.70
2018-07-27T10:45:42.980Z,44.30
2018-07-27T10:47:21.046Z,44.20
2018-07-27T10:49:00.071Z,43.30
2018-07-27T10:50:37.422Z,43.70
2018-07-27T10:52:14.638Z,43.20
2018-07-27T10:53:51.051Z,43.10
2018-07-27T10:55:31.242Z,40.80
2018-07-27T10:57:10.743Z,41.20
2018-07-27T10:58:52.905Z,40.90
2018-07-27T11:00:30.620Z,41.60
2018-07-27T11:02:07.776Z,40.40
2018-07-27T11:03:44.358Z,40.90
2018-07-27T11:05:24.696Z,40.30
2018-07-27T11:07:01.086Z,40.10
2018-07-27T11:08:40.237Z,39.50
2018-07-27T11:10:19.729Z,38.60
2018-07-27T11:11:57.500Z,39.30
2018-07-27T11:13:35.981Z,39.70
2018-07-27T11:15:16.239Z,40.10
2018-07-27T11:16:53.774Z,40.00
2018-07-27T11:18:31.524Z,40.60
2018-07-27T11:20:09.940Z,40.00
2018-07-27T11:21:48.904Z,39.70
2018-07-27T11:23:25.361Z,40.70
2018-07-27T11:25:05.872Z,40.70
2018-07-27T11:26:42.449Z,39.70
2018-07-27T11:28:20.725Z,39.60
2018-07-27T11:29:57.286Z,39.00
2018-07-27T11:31:38.879Z,38.90
2018-07-27T11:33:16.271Z,38.90
2018-07-27T11:34:52.723Z,38.70
2018-07-27T11:36:31.667Z,38.10
2018-07-27T11:38:12.238Z,39.30
2018-07-27T11:39:51.038Z,38.90
2018-07-27T11:41:28.320Z,39.00
2018-07-27T11:43:06.579Z,39.40
2018-07-27T11:44:44.339Z,39.40
2018-07-27T11:46:23.686Z,39.20
2018-07-27T11:48:03.676Z,38.20
2018-07-27T11:49:40.256Z,38.60
2018-07-27T11:51:16.654Z,38.10
2018-07-27T11:52:54.079Z,37.30
2018-07-27T11:54:30.564Z,37.70
2018-07-27T11:56:07.672Z,38.30
2018-07-27T11:57:45.655Z,38.50
2018-07-27T11:59:26.334Z,39.10
2018-07-27T12:01:03.998Z,38.60
2018-07-27T12:02:42.220Z,38.70
2018-07-27T12:04:18.941Z,39.40
2018-07-27T12:05:57.918Z,39.30
2018-07-27T12:07:36.777Z,38.80
2018-07-27T12:10:54.746Z,39.00
2018-07-27T12:12:32.666Z,38.30
2018-07-27T12:14:09.441Z,37.50
2018-07-27T12:15:51.472Z,37.90
2018-07-27T12:17:31.375Z,38.50
2018-07-27T12:19:09.209Z,37.70
2018-07-27T12:20:47.017Z,38.30
2018-07-27T12:22:25.129Z,38.60
2018-07-27T12:24:02.025Z,38.50
2018-07-27T12:25:39.874Z,38.10
2018-07-27T12:27:17.251Z,37.70
2018-07-27T12:28:55.125Z,37.50
2018-07-27T12:30:32.443Z,36.90
2018-07-27T12:32:10.552Z,36.90
2018-07-27T12:33:49.316Z,37.00
2018-07-27T12:35:37.240Z,36.70
2018-07-27T12:37:14.268Z,36.40
2018-07-27T12:38:51.578Z,37.20
2018-07-27T12:40:31.192Z,36.00
2018-07-27T12:42:11.661Z,35.80
2018-07-27T12:43:50.836Z,35.40
2018-07-27T12:45:30.721Z,35.00
2018-07-27T12:47:07.754Z,35.70
2018-07-27T12:48:46.440Z,36.20
2018-07-27T12:52:02.324Z,36.20
2018-07-27T12:53:40.587Z,36.80
2018-07-27T12:55:17.228Z,36.30
2018-07-27T12:56:58.812Z,36.00
2018-07-27T12:58:35.916Z,36.50
2018-07-27T13:00:14.816Z,36.40
2018-07-27T13:01:52.360Z,36.40
2018-07-27T13:03:32.329Z,37.10
2018-07-27T13:05:13.245Z,36.60
2018-07-27T13:06:52.028Z,36.40
2018-07-27T13:08:29.385Z,35.90
2018-07-27T13:12:03.066Z,36.30
2018-07-27T13:15:18.251Z,37.10
2018-07-27T13:17:09.140Z,37.00
2018-07-27T13:18:46.121Z,36.90
2018-07-27T13:20:23.277Z,36.70
2018-07-27T13:22:00.601Z,36.00
2018-07-27T13:25:10.971Z,36.00
2018-07-27T13:26:47.628Z,35.20
2018-07-27T13:28:24.238Z,35.20
2018-07-27T13:30:05.435Z,34.60
2018-07-27T13:31:54.603Z,34.10
2018-07-27T13:33:34.570Z,34.50
2018-07-27T13:36:52.422Z,34.80
2018-07-27T13:38:30.383Z,35.00
2018-07-27T13:40:09.606Z,34.60
2018-07-27T13:41:51.173Z,35.10
2018-07-27T13:43:29.054Z,35.50
2018-07-27T13:45:09.873Z,35.80
2018-07-27T13:46:47.679Z,35.70
2018-07-27T13:48:25.503Z,36.30
2018-07-27T13:51:39.110Z,35.70
2018-07-27T13:53:17.546Z,35.20
2018-07-27T13:54:55.771Z,35.30
2018-07-27T13:56:32.383Z,35.60
2018-07-27T13:58:09.133Z,35.00
2018-07-27T13:59:50.854Z,35.10
2018-07-27T14:03:06.664Z,34.60
2018-07-27T14:04:47.054Z,34.30
2018-07-27T14:06:24.421Z,34.70
2018-07-27T14:08:05.251Z,35.10
2018-07-27T14:09:44.357Z,34.30
2018-07-27T14:11:21.766Z,34.40
2018-07-27T14:12:59.488Z,33.50
2018-07-27T14:14:36.097Z,33.40
2018-07-27T14:16:12.886Z,34.20
2018-07-27T14:17:50.540Z,34.30
2018-07-27T14:19:28.086Z,33.60
2018-07-27T14:21:06.114Z,33.20
2018-07-27T14:22:42.782Z,33.30
2018-07-27T14:24:22.444Z,33.70
2018-07-27T14:25:59.814Z,34.00
2018-07-27T14:27:40.011Z,33.90
2018-07-27T14:29:17.138Z,33.80
2018-07-27T14:30:54.970Z,33.60
2018-07-27T14:32:32.924Z,33.90
2018-07-27T14:34:11.321Z,33.60
2018-07-27T14:35:49.170Z,33.30
2018-07-27T14:37:26.547Z,33.50
2018-07-27T14:39:03.878Z,33.50
2018-07-27T14:40:40.430Z,34.10
2018-07-27T14:42:18.677Z,34.40
2018-07-27T14:43:56.471Z,34.30
2018-07-27T14:45:34.066Z,34.40
2018-07-27T14:47:12.678Z,33.90
2018-07-27T14:48:51.478Z,34.10
2018-07-27T14:50:28.952Z,33.40
2018-07-27T14:52:06.761Z,33.10
2018-07-27T14:53:43.322Z,32.80
2018-07-27T14:55:21.255Z,32.90
2018-07-27T14:56:57.804Z,34.00
2018-07-27T14:58:37.169Z,33.20
2018-07-27T15:00:18.463Z,33.10
2018-07-27T15:01:56.479Z,33.50
2018-07-27T15:03:35.685Z,33.40
2018-07-27T15:05:14.091Z,33.40
2018-07-27T15:06:54.332Z,32.70
2018-07-27T15:08:31.526Z,31.80
2018-07-27T15:10:14.373Z,31.90
2018-07-27T15:11:55.847Z,32.10
2018-07-27T15:13:35.995Z,32.20
2018-07-27T15:17:02.615Z,32.80
2018-07-27T15:18:43.143Z,32.20
2018-07-27T15:20:23.548Z,32.50
2018-07-27T15:22:03.459Z,31.70
2018-07-27T15:23:41.473Z,31.60
2018-07-27T15:25:18.016Z,31.70
2018-07-27T15:26:54.497Z,31.50
2018-07-27T15:28:33.644Z,32.20
2018-07-27T15:30:22.268Z,32.70
2018-07-27T15:32:02.131Z,32.60
2018-07-27T15:33:39.684Z,32.30
2018-07-27T15:35:22.651Z,32.50
2018-07-27T15:36:59.197Z,32.50
2018-07-27T15:38:36.382Z,33.10
2018-07-27T15:41:50.247Z,32.20
2018-07-27T15:43:27.339Z,32.30
2018-07-27T15:45:05.547Z,31.80
2018-07-27T15:46:47.492Z,32.00
2018-07-27T15:48:26.356Z,31.50
2018-07-27T15:50:04.710Z,31.70
2018-07-27T15:51:46.315Z,31.70
2018-07-27T15:53:22.676Z,32.10
2018-07-27T15:55:01.600Z,31.70
2018-07-27T15:56:38.956Z,32.10
2018-07-27T15:58:16.684Z,31.10
2018-07-27T16:01:37.913Z,30.90
2018-07-27T16:03:14.457Z,30.90
2018-07-27T16:04:54.032Z,30.70
2018-07-27T16:06:31.304Z,30.80
2018-07-27T16:08:09.998Z,31.00
2018-07-27T16:09:47.590Z,31.30
2018-07-27T16:11:25.471Z,31.10
2018-07-27T16:13:07.195Z,31.60
2018-07-27T16:14:46.636Z,30.90
2018-07-27T16:16:27.587Z,30.90
2018-07-27T16:18:04.700Z,30.70
2018-07-27T16:19:41.938Z,31.10
2018-07-27T16:22:49.460Z,31.50
2018-07-27T16:24:31.829Z,31.20
2018-07-27T16:26:10.740Z,31.40
2018-07-27T16:27:47.858Z,31.50
2018-07-27T16:29:28.180Z,31.90
2018-07-27T16:31:06.839Z,31.90
2018-07-27T16:32:45.145Z,31.20
2018-07-27T16:34:22.388Z,31.50
2018-07-27T16:35:59.264Z,31.60
2018-07-27T16:37:36.727Z,30.90
2018-07-27T16:39:13.313Z,30.60
2018-07-27T16:40:58.177Z,30.30
2018-07-27T16:42:40.775Z,30.30
2018-07-27T16:44:17.535Z,30.70
2018-07-27T16:45:54.345Z,31.20
2018-07-27T16:47:32.238Z,31.40
2018-07-27T16:49:09.282Z,31.40
2018-07-27T16:50:46.853Z,31.90
2018-07-27T16:52:23.454Z,30.80
2018-07-27T16:54:00.016Z,31.00
2018-07-27T16:55:37.015Z,31.30
2018-07-27T16:57:15.210Z,30.90
2018-07-27T16:58:52.035Z,31.20
2018-07-27T17:00:29.383Z,30.90
2018-07-27T17:02:05.988Z,31.30
2018-07-27T17:03:44.266Z,31.00
2018-07-27T17:05:28.364Z,31.20
2018-07-27T17:07:09.141Z,31.10
2018-07-27T17:08:47.361Z,31.30
2018-07-27T17:10:25.652Z,31.10
2018-07-27T17:12:05.029Z,31.40
2018-07-27T17:13:41.640Z,30.00
2018-07-27T17:15:20.200Z,30.00
2018-07-27T17:16:57.544Z,30.00
2018-07-27T17:18:35.998Z,30.30
2018-07-27T17:20:14.538Z,30.30
2018-07-27T17:21:53.590Z,30.50
2018-07-27T17:23:34.752Z,30.40
2018-07-27T17:25:10.889Z,30.40
2018-07-27T17:26:50.623Z,30.70
2018-07-27T17:28:30.040Z,30.30
2018-07-27T17:31:53.686Z,30.80
2018-07-27T17:33:31.198Z,31.10
2018-07-27T17:35:17.675Z,32.00
2018-07-27T17:36:56.467Z,31.30
2018-07-27T17:38:36.567Z,31.30
2018-07-27T17:40:16.526Z,31.00
2018-07-27T17:41:58.099Z,31.60
2018-07-27T17:43:48.643Z,31.50
2018-07-27T17:48:45.323Z,31.60
2018-07-27T17:50:33.654Z,31.20
2018-07-27T17:52:25.734Z,30.70
2018-07-27T17:54:07.573Z,30.70
2018-07-27T17:57:33.931Z,31.20
2018-07-27T17:59:11.513Z,31.40
2018-07-27T18:02:26.851Z,31.30
2018-07-27T18:04:05.130Z,30.90
2018-07-27T18:05:46.500Z,30.40
2018-07-27T18:07:24.083Z,30.90
2018-07-27T18:09:03.142Z,31.20
2018-07-27T18:10:42.297Z,32.10
2018-07-27T18:12:21.491Z,32.00
2018-07-27T18:14:02.812Z,32.00
2018-07-27T18:15:39.606Z,32.20
2018-07-27T18:17:16.708Z,32.40
2018-07-27T18:18:54.568Z,32.40
2018-07-27T18:20:31.854Z,31.90
2018-07-27T18:22:08.543Z,32.00
2018-07-27T18:23:51.101Z,31.80
2018-07-27T18:27:06.573Z,32.20
2018-07-27T18:28:47.145Z,32.10
2018-07-27T18:30:26.956Z,32.20
2018-07-27T18:32:03.729Z,32.30
2018-07-27T18:33:40.823Z,32.40
2018-07-27T18:35:19.238Z,32.40
2018-07-27T18:37:00.556Z,32.70
2018-07-27T18:38:38.749Z,32.70
2018-07-27T18:40:17.324Z,34.70
2018-07-27T18:42:00.805Z,35.40
2018-07-27T18:43:39.399Z,36.10
2018-07-27T18:45:24.627Z,36.50
2018-07-27T18:47:01.797Z,36.90
2018-07-27T18:48:39.631Z,37.20
2018-07-27T18:50:16.496Z,37.50
2018-07-27T18:51:53.626Z,37.30
2018-07-27T18:53:30.082Z,38.20
2018-07-27T18:55:08.851Z,38.30
2018-07-27T18:57:17.541Z,38.50
2018-07-27T18:58:58.585Z,39.10
2018-07-27T19:02:14.463Z,39.10
2018-07-27T19:03:51.000Z,39.00
2018-07-27T19:05:29.970Z,39.00
2018-07-27T19:07:07.540Z,38.90
2018-07-27T19:08:44.111Z,38.90
2018-07-27T19:10:22.823Z,39.40
2018-07-27T19:11:59.410Z,39.20
2018-07-27T19:13:37.231Z,39.10
2018-07-27T19:15:16.789Z,39.40
2018-07-27T19:18:34.619Z,39.60
2018-07-27T19:20:13.390Z,39.80
2018-07-27T19:21:49.841Z,40.00
2018-07-27T19:23:26.861Z,40.30
2018-07-27T19:25:06.217Z,40.50
2018-07-27T19:26:44.830Z,40.60
2018-07-27T19:28:24.208Z,40.60
2018-07-27T19:30:01.360Z,40.40
2018-07-27T19:31:39.586Z,40.20
2018-07-27T19:33:16.370Z,40.60
2018-07-27T19:34:52.900Z,40.70
2018-07-27T19:36:29.242Z,41.10
2018-07-27T19:38:07.229Z,41.50
2018-07-27T19:39:49.450Z,41.70
2018-07-27T19:41:26.094Z,41.60
2018-07-27T19:43:02.518Z,41.40
2018-07-27T19:44:42.563Z,41.50
2018-07-27T19:47:57.784Z,41.50
2018-07-27T19:49:34.507Z,41.40
2018-07-27T19:51:11.306Z,41.70
2018-07-27T19:52:49.104Z,41.90
2018-07-27T19:54:26.182Z,42.30
2018-07-27T19:56:03.923Z,42.60
2018-07-27T19:57:41.585Z,43.00
2018-07-27T19:59:18.533Z,43.00
2018-07-27T20:02:38.006Z,43.40
2018-07-27T20:04:16.169Z,43.70
2018-07-27T20:05:53.173Z,43.90
2018-07-27T20:07:33.539Z,44.00
2018-07-27T20:09:11.302Z,44.00
2018-07-27T20:10:48.368Z,44.20
2018-07-27T20:12:24.890Z,44.30
2018-07-27T20:14:02.325Z,44.60
2018-07-27T20:15:39.805Z,44.70
2018-07-27T20:17:17.253Z,45.00
2018-07-27T20:18:56.446Z,45.20
2018-07-27T20:20:37.155Z,45.30
2018-07-27T20:22:14.245Z,45.60
2018-07-27T20:23:52.639Z,45.70
2018-07-27T20:25:31.560Z,45.90
2018-07-27T20:27:09.880Z,46.10
2018-07-27T20:28:47.159Z,46.20
2018-07-27T20:30:30.903Z,46.10
2018-07-27T20:32:07.911Z,46.40
2018-07-27T20:33:45.102Z,46.50
2018-07-27T20:35:22.711Z,46.40
2018-07-27T20:38:38.302Z,46.80
2018-07-27T20:40:15.969Z,46.60
2018-07-27T20:41:54.310Z,46.30
2018-07-27T20:43:31.697Z,46.00
2018-07-27T20:45:09.300Z,46.00
2018-07-27T20:46:45.958Z,46.20
2018-07-27T20:48:22.371Z,46.30
2018-07-27T20:49:59.980Z,46.10
2018-07-27T20:51:38.964Z,46.90
2018-07-27T20:53:15.494Z,47.20
2018-07-27T20:54:53.920Z,46.20
2018-07-27T20:56:32.972Z,49.80
2018-07-27T20:58:11.852Z,49.30
2018-07-27T20:59:48.992Z,47.00
2018-07-27T21:01:25.780Z,47.90
2018-07-27T21:03:05.280Z,47.00
2018-07-27T21:04:43.488Z,46.70
2018-07-27T21:06:21.978Z,47.40
2018-07-27T21:08:04.857Z,47.70
2018-07-27T21:09:41.965Z,46.80
2018-07-27T21:11:20.424Z,46.70
2018-07-27T21:12:57.002Z,47.70
2018-07-27T21:14:33.593Z,48.60
2018-07-27T21:16:14.423Z,48.40
2018-07-27T21:17:54.085Z,47.50
2018-07-27T21:19:33.570Z,47.90
2018-07-27T21:21:10.258Z,49.30
2018-07-27T21:22:48.956Z,49.10
2018-07-27T21:24:25.446Z,50.10
2018-07-27T21:26:02.685Z,48.30
2018-07-27T21:27:39.237Z,48.90
2018-07-27T21:29:16.804Z,50.00
2018-07-27T21:30:56.032Z,49.10
2018-07-27T21:32:34.760Z,49.60
2018-07-27T21:34:13.110Z,49.10
2018-07-27T21:35:53.250Z,49.20
2018-07-27T21:37:32.015Z,49.10
2018-07-27T21:39:13.827Z,48.70
2018-07-27T21:40:54.307Z,48.90
2018-07-27T21:42:33.777Z,48.90
2018-07-27T21:44:12.424Z,48.90
2018-07-27T21:46:01.934Z,50.10
2018-07-27T21:47:44.296Z,49.30
2018-07-27T21:49:24.508Z,49.40
2018-07-27T21:51:01.061Z,49.60
2018-07-27T21:52:42.417Z,49.90
2018-07-27T21:54:20.856Z,50.10
2018-07-27T21:55:58.694Z,50.40
2018-07-27T21:57:37.223Z,50.40
2018-07-27T21:59:19.946Z,50.40
2018-07-27T22:00:58.665Z,50.60
2018-07-27T22:02:43.659Z,50.80
2018-07-27T22:04:24.504Z,51.10
2018-07-27T22:06:03.572Z,51.30
2018-07-27T22:07:40.029Z,51.40
2018-07-27T22:09:18.214Z,51.40
2018-07-27T22:10:57.404Z,51.40
2018-07-27T22:12:39.477Z,51.40
2018-07-27T22:14:22.295Z,51.60
2018-07-27T22:16:01.178Z,51.50